sensor_id;sensor_type;location;lat;lon;timestamp;temperature;humidity
1570;DHT22;778;50.120;8.698;2022-08-19T00:02:03;22.80;99.90
1570;DHT22;778;50.120;8.698;2022-08-19T00:04:34;22.70;99.90
1570;DHT22;778;50.120;8.698;2022-08-19T00:07:05;22.70;99.90
1570;DHT22;778;50.120;8.698;2022-08-19T00:09:34;22.70;99.90
1570;DHT22;778;50.120;8.698;2022-08-19T00:12:03;22.70;99.90
1570;DHT22;778;50.120;8.698;2022-08-19T00:14:32;22.70;99.90
1570;DHT22;778;50.120;8.698;2022-08-19T00:17:03;22.60;99.90
1570;DHT22;778;50.120;8.698;2022-08-19T00:19:32;22.60;99.90
1570;DHT22;778;50.120;8.698;2022-08-19T00:22:01;22.60;99.90
1570;DHT22;778;50.120;8.698;2022-08-19T00:24:30;22.60;99.90
1570;DHT22;778;50.120;8.698;2022-08-19T00:26:58;22.70;99.90
1570;DHT22;778;50.120;8.698;2022-08-19T00:29:48;22.70;99.90
1570;DHT22;778;50.120;8.698;2022-08-19T00:32:20;22.70;99.90
1570;DHT22;778;50.120;8.698;2022-08-19T00:34:49;22.70;99.90
1570;DHT22;778;50.120;8.698;2022-08-19T00:37:20;22.60;99.90
1570;DHT22;778;50.120;8.698;2022-08-19T00:39:49;22.60;99.90
1570;DHT22;778;50.120;8.698;2022-08-19T00:42:20;22.60;99.90
1570;DHT22;778;50.120;8.698;2022-08-19T00:44:49;22.60;99.90
1570;DHT22;778;50.120;8.698;2022-08-19T00:47:19;22.60;99.90
1570;DHT22;778;50.120;8.698;2022-08-19T00:49:50;22.60;99.90
1570;DHT22;778;50.120;8.698;2022-08-19T00:52:23;22.60;99.90
1570;DHT22;778;50.120;8.698;2022-08-19T00:54:54;22.60;99.90
1570;DHT22;778;50.120;8.698;2022-08-19T00:57:28;22.60;99.90
1570;DHT22;778;50.120;8.698;2022-08-19T00:59:58;22.60;99.90
1570;DHT22;778;50.120;8.698;2022-08-19T01:02:32;22.60;99.90
1570;DHT22;778;50.120;8.698;2022-08-19T01:05:05;22.60;99.90
1570;DHT22;778;50.120;8.698;2022-08-19T01:07:38;22.60;99.90
1570;DHT22;778;50.120;8.698;2022-08-19T01:10:10;22.60;99.90
1570;DHT22;778;50.120;8.698;2022-08-19T01:12:41;22.60;99.90
1570;DHT22;778;50.120;8.698;2022-08-19T01:15:12;22.60;99.90
1570;DHT22;778;50.120;8.698;2022-08-19T01:17:44;22.50;99.90
1570;DHT22;778;50.120;8.698;2022-08-19T01:20:17;22.50;99.90
1570;DHT22;778;50.120;8.698;2022-08-19T01:22:51;22.60;99.90
1570;DHT22;778;50.120;8.698;2022-08-19T01:25:22;22.50;99.90
1570;DHT22;778;50.120;8.698;2022-08-19T01:27:54;22.50;99.90
1570;DHT22;778;50.120;8.698;2022-08-19T01:30:37;22.50;99.90
1570;DHT22;778;50.120;8.698;2022-08-19T01:33:16;22.60;99.90
1570;DHT22;778;50.120;8.698;2022-08-19T01:35:46;22.60;99.90
1570;DHT22;778;50.120;8.698;2022-08-19T01:38:23;22.50;99.90
1570;DHT22;778;50.120;8.698;2022-08-19T01:40:53;22.50;99.90
1570;DHT22;778;50.120;8.698;2022-08-19T01:43:21;22.50;99.90
1570;DHT22;778;50.120;8.698;2022-08-19T01:45:50;22.50;99.90
1570;DHT22;778;50.120;8.698;2022-08-19T01:48:19;22.40;99.90
1570;DHT22;778;50.120;8.698;2022-08-19T01:50:48;22.40;99.90
1570;DHT22;778;50.120;8.698;2022-08-19T01:53:17;22.40;99.90
1570;DHT22;778;50.120;8.698;2022-08-19T01:55:47;22.40;99.90
1570;DHT22;778;50.120;8.698;2022-08-19T01:58:19;22.50;99.90
1570;DHT22;778;50.120;8.698;2022-08-19T02:00:49;22.40;99.90
1570;DHT22;778;50.120;8.698;2022-08-19T02:03:18;22.50;99.90
1570;DHT22;778;50.120;8.698;2022-08-19T02:05:46;22.50;99.90
1570;DHT22;778;50.120;8.698;2022-08-19T02:08:15;22.40;99.90
1570;DHT22;778;50.120;8.698;2022-08-19T02:10:44;22.40;99.90
1570;DHT22;778;50.120;8.698;2022-08-19T02:13:14;22.40;99.90
1570;DHT22;778;50.120;8.698;2022-08-19T02:15:48;22.50;99.90
1570;DHT22;778;50.120;8.698;2022-08-19T02:18:17;22.40;99.90
1570;DHT22;778;50.120;8.698;2022-08-19T02:20:46;22.40;99.90
1570;DHT22;778;50.120;8.698;2022-08-19T02:23:16;22.40;99.90
1570;DHT22;778;50.120;8.698;2022-08-19T02:25:46;22.30;99.90
1570;DHT22;778;50.120;8.698;2022-08-19T02:28:16;22.40;99.90
1570;DHT22;778;50.120;8.698;2022-08-19T02:30:46;22.40;99.90
1570;DHT22;778;50.120;8.698;2022-08-19T02:33:16;22.40;99.90
1570;DHT22;778;50.120;8.698;2022-08-19T02:35:46;22.40;99.90
1570;DHT22;778;50.120;8.698;2022-08-19T02:38:14;22.40;99.90
1570;DHT22;778;50.120;8.698;2022-08-19T02:40:56;22.40;99.90
1570;DHT22;778;50.120;8.698;2022-08-19T02:43:28;22.40;99.90
1570;DHT22;778;50.120;8.698;2022-08-19T02:46:00;22.40;99.90
1570;DHT22;778;50.120;8.698;2022-08-19T02:48:29;22.40;99.90
1570;DHT22;778;50.120;8.698;2022-08-19T02:50:59;22.40;99.90
1570;DHT22;778;50.120;8.698;2022-08-19T02:53:28;22.40;99.90
1570;DHT22;778;50.120;8.698;2022-08-19T02:55:57;22.50;99.90
1570;DHT22;778;50.120;8.698;2022-08-19T02:58:27;22.50;99.90
1570;DHT22;778;50.120;8.698;2022-08-19T03:00:56;22.50;99.90
1570;DHT22;778;50.120;8.698;2022-08-19T03:03:25;22.40;99.90
1570;DHT22;778;50.120;8.698;2022-08-19T03:06:07;22.40;99.90
1570;DHT22;778;50.120;8.698;2022-08-19T03:08:38;22.30;99.90
1570;DHT22;778;50.120;8.698;2022-08-19T03:11:13;22.30;99.90
1570;DHT22;778;50.120;8.698;2022-08-19T03:13:44;22.30;99.90
1570;DHT22;778;50.120;8.698;2022-08-19T03:16:12;22.30;99.90
1570;DHT22;778;50.120;8.698;2022-08-19T03:18:41;22.30;99.90
1570;DHT22;778;50.120;8.698;2022-08-19T03:21:16;22.30;99.90
1570;DHT22;778;50.120;8.698;2022-08-19T03:23:45;22.30;99.90
1570;DHT22;778;50.120;8.698;2022-08-19T03:26:13;22.30;99.90
1570;DHT22;778;50.120;8.698;2022-08-19T03:28:45;22.30;99.90
1570;DHT22;778;50.120;8.698;2022-08-19T03:31:26;22.30;99.90
1570;DHT22;778;50.120;8.698;2022-08-19T03:34:14;22.30;99.90
1570;DHT22;778;50.120;8.698;2022-08-19T03:36:44;22.30;99.90
1570;DHT22;778;50.120;8.698;2022-08-19T03:39:14;22.30;99.90
1570;DHT22;778;50.120;8.698;2022-08-19T03:41:44;22.30;99.90
1570;DHT22;778;50.120;8.698;2022-08-19T03:44:17;22.30;99.90
1570;DHT22;778;50.120;8.698;2022-08-19T03:46:49;22.30;99.90
1570;DHT22;778;50.120;8.698;2022-08-19T03:49:19;22.20;99.90
1570;DHT22;778;50.120;8.698;2022-08-19T03:51:56;22.30;99.90
1570;DHT22;778;50.120;8.698;2022-08-19T03:54:27;22.30;99.90
1570;DHT22;778;50.120;8.698;2022-08-19T03:56:57;22.30;99.90
1570;DHT22;778;50.120;8.698;2022-08-19T03:59:30;22.30;99.90
1570;DHT22;778;50.120;8.698;2022-08-19T04:02:03;22.30;99.90
1570;DHT22;778;50.120;8.698;2022-08-19T04:04:36;22.30;99.90
1570;DHT22;778;50.120;8.698;2022-08-19T04:07:06;22.20;99.90
1570;DHT22;778;50.120;8.698;2022-08-19T04:09:36;22.30;99.90
1570;DHT22;778;50.120;8.698;2022-08-19T04:12:05;22.30;99.90
1570;DHT22;778;50.120;8.698;2022-08-19T04:14:35;22.20;99.90
1570;DHT22;778;50.120;8.698;2022-08-19T04:17:04;22.20;99.90
1570;DHT22;778;50.120;8.698;2022-08-19T04:19:34;22.10;99.90
1570;DHT22;778;50.120;8.698;2022-08-19T04:22:04;22.10;99.90
1570;DHT22;778;50.120;8.698;2022-08-19T04:24:34;22.10;99.90
1570;DHT22;778;50.120;8.698;2022-08-19T04:27:04;22.00;99.90
1570;DHT22;778;50.120;8.698;2022-08-19T04:29:35;22.00;99.90
1570;DHT22;778;50.120;8.698;2022-08-19T04:32:06;22.00;99.90
1570;DHT22;778;50.120;8.698;2022-08-19T04:34:36;21.90;99.90
1570;DHT22;778;50.120;8.698;2022-08-19T04:37:26;21.90;99.90
1570;DHT22;778;50.120;8.698;2022-08-19T04:40:04;21.90;99.90
1570;DHT22;778;50.120;8.698;2022-08-19T04:42:51;21.90;99.90
1570;DHT22;778;50.120;8.698;2022-08-19T04:45:22;21.90;99.90
1570;DHT22;778;50.120;8.698;2022-08-19T04:47:54;21.90;99.90
1570;DHT22;778;50.120;8.698;2022-08-19T04:50:44;21.90;99.90
1570;DHT22;778;50.120;8.698;2022-08-19T04:53:12;21.90;99.90
1570;DHT22;778;50.120;8.698;2022-08-19T04:55:41;21.90;99.90
1570;DHT22;778;50.120;8.698;2022-08-19T04:58:09;21.90;99.90
1570;DHT22;778;50.120;8.698;2022-08-19T05:00:40;21.90;99.90
1570;DHT22;778;50.120;8.698;2022-08-19T05:03:08;21.90;99.90
1570;DHT22;778;50.120;8.698;2022-08-19T05:05:39;21.90;99.90
1570;DHT22;778;50.120;8.698;2022-08-19T05:08:11;21.80;99.90
1570;DHT22;778;50.120;8.698;2022-08-19T05:10:42;22.00;99.90
1570;DHT22;778;50.120;8.698;2022-08-19T05:13:11;22.00;99.90
1570;DHT22;778;50.120;8.698;2022-08-19T05:15:41;21.90;99.90
1570;DHT22;778;50.120;8.698;2022-08-19T05:18:10;21.90;99.90
1570;DHT22;778;50.120;8.698;2022-08-19T05:20:55;22.00;99.90
1570;DHT22;778;50.120;8.698;2022-08-19T05:23:41;21.90;99.90
1570;DHT22;778;50.120;8.698;2022-08-19T05:26:11;22.00;99.90
1570;DHT22;778;50.120;8.698;2022-08-19T05:28:39;22.00;99.90
1570;DHT22;778;50.120;8.698;2022-08-19T05:31:09;22.00;99.90
1570;DHT22;778;50.120;8.698;2022-08-19T05:33:38;22.00;99.90
1570;DHT22;778;50.120;8.698;2022-08-19T05:36:07;22.10;99.90
1570;DHT22;778;50.120;8.698;2022-08-19T05:38:36;22.20;99.90
1570;DHT22;778;50.120;8.698;2022-08-19T05:41:07;22.10;99.90
1570;DHT22;778;50.120;8.698;2022-08-19T05:43:37;22.10;99.90
1570;DHT22;778;50.120;8.698;2022-08-19T05:46:06;22.10;99.90
1570;DHT22;778;50.120;8.698;2022-08-19T05:48:36;22.20;99.90
1570;DHT22;778;50.120;8.698;2022-08-19T05:51:05;22.20;99.90
1570;DHT22;778;50.120;8.698;2022-08-19T05:53:35;22.30;99.90
1570;DHT22;778;50.120;8.698;2022-08-19T05:56:04;22.40;99.90
1570;DHT22;778;50.120;8.698;2022-08-19T05:58:33;22.40;99.90
1570;DHT22;778;50.120;8.698;2022-08-19T06:01:03;22.40;99.90
1570;DHT22;778;50.120;8.698;2022-08-19T06:03:34;22.40;99.90
1570;DHT22;778;50.120;8.698;2022-08-19T06:06:04;22.40;99.90
1570;DHT22;778;50.120;8.698;2022-08-19T06:08:34;22.40;99.90
1570;DHT22;778;50.120;8.698;2022-08-19T06:11:16;22.50;99.90
1570;DHT22;778;50.120;8.698;2022-08-19T06:13:48;22.60;99.90
1570;DHT22;778;50.120;8.698;2022-08-19T06:16:26;22.60;99.90
1570;DHT22;778;50.120;8.698;2022-08-19T06:18:59;22.70;99.90
1570;DHT22;778;50.120;8.698;2022-08-19T06:21:29;22.80;99.90
1570;DHT22;778;50.120;8.698;2022-08-19T06:23:59;23.00;99.90
1570;DHT22;778;50.120;8.698;2022-08-19T06:26:28;23.10;99.90
1570;DHT22;778;50.120;8.698;2022-08-19T06:28:56;23.10;99.90
1570;DHT22;778;50.120;8.698;2022-08-19T06:31:29;23.20;99.90
1570;DHT22;778;50.120;8.698;2022-08-19T06:34:02;23.20;99.90
1570;DHT22;778;50.120;8.698;2022-08-19T06:36:35;23.00;99.90
1570;DHT22;778;50.120;8.698;2022-08-19T06:39:07;23.00;99.90
1570;DHT22;778;50.120;8.698;2022-08-19T06:41:39;22.90;99.90
1570;DHT22;778;50.120;8.698;2022-08-19T06:44:18;22.80;99.90
1570;DHT22;778;50.120;8.698;2022-08-19T06:46:47;22.90;99.90
1570;DHT22;778;50.120;8.698;2022-08-19T06:49:22;23.00;99.90
1570;DHT22;778;50.120;8.698;2022-08-19T06:51:54;23.10;99.90
1570;DHT22;778;50.120;8.698;2022-08-19T06:54:24;23.20;99.90
1570;DHT22;778;50.120;8.698;2022-08-19T06:56:57;23.30;99.90
1570;DHT22;778;50.120;8.698;2022-08-19T06:59:30;23.40;99.90
1570;DHT22;778;50.120;8.698;2022-08-19T07:02:03;23.70;99.90
1570;DHT22;778;50.120;8.698;2022-08-19T07:04:35;23.90;99.90
1570;DHT22;778;50.120;8.698;2022-08-19T07:07:09;24.00;99.90
1570;DHT22;778;50.120;8.698;2022-08-19T07:09:46;24.30;99.90
1570;DHT22;778;50.120;8.698;2022-08-19T07:12:26;24.30;99.90
1570;DHT22;778;50.120;8.698;2022-08-19T07:14:57;24.50;99.90
1570;DHT22;778;50.120;8.698;2022-08-19T07:17:27;24.50;99.90
1570;DHT22;778;50.120;8.698;2022-08-19T07:19:58;24.70;99.90
1570;DHT22;778;50.120;8.698;2022-08-19T07:22:32;24.80;99.90
1570;DHT22;778;50.120;8.698;2022-08-19T07:25:02;24.80;99.90
1570;DHT22;778;50.120;8.698;2022-08-19T07:27:31;25.00;99.90
1570;DHT22;778;50.120;8.698;2022-08-19T07:30:01;25.20;99.90
1570;DHT22;778;50.120;8.698;2022-08-19T07:32:31;25.10;99.90
1570;DHT22;778;50.120;8.698;2022-08-19T07:35:01;25.00;99.90
1570;DHT22;778;50.120;8.698;2022-08-19T07:37:30;25.30;99.90
1570;DHT22;778;50.120;8.698;2022-08-19T07:39:59;25.50;99.90
1570;DHT22;778;50.120;8.698;2022-08-19T07:42:28;25.80;99.90
1570;DHT22;778;50.120;8.698;2022-08-19T07:44:57;25.70;99.90
1570;DHT22;778;50.120;8.698;2022-08-19T07:47:26;26.00;99.90
1570;DHT22;778;50.120;8.698;2022-08-19T07:50:18;26.30;99.90
1570;DHT22;778;50.120;8.698;2022-08-19T07:52:49;26.30;99.90
1570;DHT22;778;50.120;8.698;2022-08-19T07:55:20;26.50;99.90
1570;DHT22;778;50.120;8.698;2022-08-19T07:58:10;26.40;99.90
1570;DHT22;778;50.120;8.698;2022-08-19T08:00:39;26.60;99.90
1570;DHT22;778;50.120;8.698;2022-08-19T08:03:08;26.80;99.90
1570;DHT22;778;50.120;8.698;2022-08-19T08:05:38;27.00;99.90
1570;DHT22;778;50.120;8.698;2022-08-19T08:08:26;27.40;99.90
1570;DHT22;778;50.120;8.698;2022-08-19T08:11:15;27.80;99.90
1570;DHT22;778;50.120;8.698;2022-08-19T08:13:47;28.30;97.20
1570;DHT22;778;50.120;8.698;2022-08-19T08:16:32;28.30;97.40
1570;DHT22;778;50.120;8.698;2022-08-19T08:19:06;28.00;96.60
1570;DHT22;778;50.120;8.698;2022-08-19T08:21:53;27.80;98.80
1570;DHT22;778;50.120;8.698;2022-08-19T08:24:23;28.10;96.40
1570;DHT22;778;50.120;8.698;2022-08-19T08:26:54;28.00;95.90
1570;DHT22;778;50.120;8.698;2022-08-19T08:29:24;28.10;96.00
1570;DHT22;778;50.120;8.698;2022-08-19T08:32:01;28.10;95.60
1570;DHT22;778;50.120;8.698;2022-08-19T08:34:40;28.00;95.50
1570;DHT22;778;50.120;8.698;2022-08-19T08:37:10;28.20;94.90
1570;DHT22;778;50.120;8.698;2022-08-19T08:39:42;28.10;95.10
1570;DHT22;778;50.120;8.698;2022-08-19T08:42:14;28.00;94.50
1570;DHT22;778;50.120;8.698;2022-08-19T08:44:51;27.90;94.60
1570;DHT22;778;50.120;8.698;2022-08-19T08:47:31;28.00;94.40
1570;DHT22;778;50.120;8.698;2022-08-19T08:50:10;27.60;93.90
1570;DHT22;778;50.120;8.698;2022-08-19T08:52:46;27.60;94.40
1570;DHT22;778;50.120;8.698;2022-08-19T08:55:19;27.70;94.90
1570;DHT22;778;50.120;8.698;2022-08-19T08:57:55;28.00;93.40
1570;DHT22;778;50.120;8.698;2022-08-19T09:00:31;28.00;93.70
1570;DHT22;778;50.120;8.698;2022-08-19T09:03:18;28.30;92.50
1570;DHT22;778;50.120;8.698;2022-08-19T09:05:56;28.20;93.60
1570;DHT22;778;50.120;8.698;2022-08-19T09:08:36;28.10;91.60
1570;DHT22;778;50.120;8.698;2022-08-19T09:11:14;28.30;91.70
1570;DHT22;778;50.120;8.698;2022-08-19T09:14:11;28.40;90.90
1570;DHT22;778;50.120;8.698;2022-08-19T09:17:03;28.50;90.40
1570;DHT22;778;50.120;8.698;2022-08-19T09:19:35;28.00;89.80
1570;DHT22;778;50.120;8.698;2022-08-19T09:22:05;28.10;91.20
1570;DHT22;778;50.120;8.698;2022-08-19T09:24:37;28.40;91.30
1570;DHT22;778;50.120;8.698;2022-08-19T09:27:06;28.70;91.50
1570;DHT22;778;50.120;8.698;2022-08-19T09:29:44;28.90;90.10
1570;DHT22;778;50.120;8.698;2022-08-19T09:32:15;28.80;90.00
1570;DHT22;778;50.120;8.698;2022-08-19T09:34:52;28.90;89.40
1570;DHT22;778;50.120;8.698;2022-08-19T09:37:22;28.70;88.80
1570;DHT22;778;50.120;8.698;2022-08-19T09:39:52;28.40;88.70
1570;DHT22;778;50.120;8.698;2022-08-19T09:42:21;28.00;90.90
1570;DHT22;778;50.120;8.698;2022-08-19T09:45:01;28.20;91.10
1570;DHT22;778;50.120;8.698;2022-08-19T09:47:36;28.10;91.40
1570;DHT22;778;50.120;8.698;2022-08-19T09:50:09;28.10;92.80
1570;DHT22;778;50.120;8.698;2022-08-19T09:52:42;28.10;92.40
1570;DHT22;778;50.120;8.698;2022-08-19T09:55:25;28.50;91.10
1570;DHT22;778;50.120;8.698;2022-08-19T09:57:59;28.40;90.90
1570;DHT22;778;50.120;8.698;2022-08-19T10:00:29;28.80;90.40
1570;DHT22;778;50.120;8.698;2022-08-19T10:02:58;28.90;90.20
1570;DHT22;778;50.120;8.698;2022-08-19T10:05:27;28.80;89.10
1570;DHT22;778;50.120;8.698;2022-08-19T10:08:16;28.70;88.60
1570;DHT22;778;50.120;8.698;2022-08-19T10:10:48;28.90;87.80
1570;DHT22;778;50.120;8.698;2022-08-19T10:13:19;28.80;89.30
1570;DHT22;778;50.120;8.698;2022-08-19T10:15:53;28.50;89.80
1570;DHT22;778;50.120;8.698;2022-08-19T10:18:36;28.40;90.80
1570;DHT22;778;50.120;8.698;2022-08-19T10:21:17;28.50;88.20
1570;DHT22;778;50.120;8.698;2022-08-19T10:23:48;28.40;88.30
1570;DHT22;778;50.120;8.698;2022-08-19T10:26:22;28.20;89.80
1570;DHT22;778;50.120;8.698;2022-08-19T10:28:52;28.10;90.60
1570;DHT22;778;50.120;8.698;2022-08-19T10:31:25;28.30;91.00
1570;DHT22;778;50.120;8.698;2022-08-19T10:34:16;28.70;90.40
1570;DHT22;778;50.120;8.698;2022-08-19T10:36:54;29.20;85.80
1570;DHT22;778;50.120;8.698;2022-08-19T10:39:27;29.40;82.30
1570;DHT22;778;50.120;8.698;2022-08-19T10:42:10;29.30;80.40
1570;DHT22;778;50.120;8.698;2022-08-19T10:44:40;29.50;83.20
1570;DHT22;778;50.120;8.698;2022-08-19T10:47:09;29.50;82.00
1570;DHT22;778;50.120;8.698;2022-08-19T10:49:51;29.50;79.90
1570;DHT22;778;50.120;8.698;2022-08-19T10:52:39;29.20;81.00
1570;DHT22;778;50.120;8.698;2022-08-19T10:55:17;29.00;81.90
1570;DHT22;778;50.120;8.698;2022-08-19T10:58:10;29.00;81.60
1570;DHT22;778;50.120;8.698;2022-08-19T11:00:40;29.50;80.70
1570;DHT22;778;50.120;8.698;2022-08-19T11:03:09;29.90;79.70
1570;DHT22;778;50.120;8.698;2022-08-19T11:05:38;30.10;76.60
1570;DHT22;778;50.120;8.698;2022-08-19T11:08:08;30.10;79.20
1570;DHT22;778;50.120;8.698;2022-08-19T11:10:50;30.50;75.20
1570;DHT22;778;50.120;8.698;2022-08-19T11:13:29;30.00;75.10
1570;DHT22;778;50.120;8.698;2022-08-19T11:16:00;29.60;77.00
1570;DHT22;778;50.120;8.698;2022-08-19T11:18:36;29.30;77.50
1570;DHT22;778;50.120;8.698;2022-08-19T11:21:08;28.90;76.30
1570;DHT22;778;50.120;8.698;2022-08-19T11:23:38;29.00;76.80
1570;DHT22;778;50.120;8.698;2022-08-19T11:26:07;29.30;74.60
1570;DHT22;778;50.120;8.698;2022-08-19T11:28:37;29.50;73.50
1570;DHT22;778;50.120;8.698;2022-08-19T11:31:10;29.80;73.10
1570;DHT22;778;50.120;8.698;2022-08-19T11:33:39;30.00;72.90
1570;DHT22;778;50.120;8.698;2022-08-19T11:36:13;29.90;73.40
1570;DHT22;778;50.120;8.698;2022-08-19T11:38:42;30.10;74.00
1570;DHT22;778;50.120;8.698;2022-08-19T11:41:11;30.00;75.60
1570;DHT22;778;50.120;8.698;2022-08-19T11:43:41;30.00;72.60
1570;DHT22;778;50.120;8.698;2022-08-19T11:46:12;29.80;72.60
1570;DHT22;778;50.120;8.698;2022-08-19T11:48:42;29.50;73.50
1570;DHT22;778;50.120;8.698;2022-08-19T11:51:12;29.20;73.30
1570;DHT22;778;50.120;8.698;2022-08-19T11:53:42;29.00;70.90
1570;DHT22;778;50.120;8.698;2022-08-19T11:56:11;28.80;73.50
1570;DHT22;778;50.120;8.698;2022-08-19T11:58:41;28.90;73.70
1570;DHT22;778;50.120;8.698;2022-08-19T12:01:11;29.30;72.90
1570;DHT22;778;50.120;8.698;2022-08-19T12:03:42;29.50;73.10
1570;DHT22;778;50.120;8.698;2022-08-19T12:06:14;29.30;73.00
1570;DHT22;778;50.120;8.698;2022-08-19T12:08:44;29.20;72.70
1570;DHT22;778;50.120;8.698;2022-08-19T12:11:14;28.90;73.10
1570;DHT22;778;50.120;8.698;2022-08-19T12:13:44;28.80;72.00
1570;DHT22;778;50.120;8.698;2022-08-19T12:16:15;28.50;70.40
1570;DHT22;778;50.120;8.698;2022-08-19T12:18:46;28.70;71.40
1570;DHT22;778;50.120;8.698;2022-08-19T12:21:16;28.90;67.90
1570;DHT22;778;50.120;8.698;2022-08-19T12:23:49;29.00;70.10
1570;DHT22;778;50.120;8.698;2022-08-19T12:26:22;29.20;67.20
1570;DHT22;778;50.120;8.698;2022-08-19T12:28:52;29.20;68.90
1570;DHT22;778;50.120;8.698;2022-08-19T12:31:21;29.20;67.90
1570;DHT22;778;50.120;8.698;2022-08-19T12:33:50;29.10;68.60
1570;DHT22;778;50.120;8.698;2022-08-19T12:36:19;28.90;69.10
1570;DHT22;778;50.120;8.698;2022-08-19T12:38:49;29.00;70.10
1570;DHT22;778;50.120;8.698;2022-08-19T12:41:18;29.20;67.80
1570;DHT22;778;50.120;8.698;2022-08-19T12:43:49;29.20;67.50
1570;DHT22;778;50.120;8.698;2022-08-19T12:46:19;29.30;71.80
1570;DHT22;778;50.120;8.698;2022-08-19T12:48:51;29.30;68.20
1570;DHT22;778;50.120;8.698;2022-08-19T12:51:22;29.20;71.70
1570;DHT22;778;50.120;8.698;2022-08-19T12:53:52;29.20;66.30
1570;DHT22;778;50.120;8.698;2022-08-19T12:56:20;29.10;68.80
1570;DHT22;778;50.120;8.698;2022-08-19T12:58:49;28.80;66.10
1570;DHT22;778;50.120;8.698;2022-08-19T13:01:20;28.90;65.90
1570;DHT22;778;50.120;8.698;2022-08-19T13:03:49;29.00;66.50
1570;DHT22;778;50.120;8.698;2022-08-19T13:06:20;29.10;67.10
1570;DHT22;778;50.120;8.698;2022-08-19T13:08:49;29.20;65.80
1570;DHT22;778;50.120;8.698;2022-08-19T13:11:23;29.10;73.80
1570;DHT22;778;50.120;8.698;2022-08-19T13:13:52;28.90;66.80
1570;DHT22;778;50.120;8.698;2022-08-19T13:16:23;28.80;67.30
1570;DHT22;778;50.120;8.698;2022-08-19T13:18:54;28.60;69.00
1570;DHT22;778;50.120;8.698;2022-08-19T13:21:25;28.60;70.40
1570;DHT22;778;50.120;8.698;2022-08-19T13:23:57;28.60;65.80
1570;DHT22;778;50.120;8.698;2022-08-19T13:26:25;28.70;69.00
1570;DHT22;778;50.120;8.698;2022-08-19T13:28:54;28.60;64.40
1570;DHT22;778;50.120;8.698;2022-08-19T13:31:42;28.60;64.80
1570;DHT22;778;50.120;8.698;2022-08-19T13:34:31;28.90;67.00
1570;DHT22;778;50.120;8.698;2022-08-19T13:37:03;29.00;65.00
1570;DHT22;778;50.120;8.698;2022-08-19T13:39:34;29.10;62.40
1570;DHT22;778;50.120;8.698;2022-08-19T13:42:03;29.00;66.30
1570;DHT22;778;50.120;8.698;2022-08-19T13:44:34;29.10;62.90
1570;DHT22;778;50.120;8.698;2022-08-19T13:47:05;29.10;61.90
1570;DHT22;778;50.120;8.698;2022-08-19T13:49:35;29.00;62.80
1570;DHT22;778;50.120;8.698;2022-08-19T13:52:05;28.90;65.10
1570;DHT22;778;50.120;8.698;2022-08-19T13:54:33;29.00;63.50
1570;DHT22;778;50.120;8.698;2022-08-19T13:57:03;29.00;63.60
1570;DHT22;778;50.120;8.698;2022-08-19T13:59:31;29.10;64.40
1570;DHT22;778;50.120;8.698;2022-08-19T14:02:00;29.20;66.70
1570;DHT22;778;50.120;8.698;2022-08-19T14:04:32;29.20;62.90
1570;DHT22;778;50.120;8.698;2022-08-19T14:07:00;29.30;62.70
1570;DHT22;778;50.120;8.698;2022-08-19T14:09:29;29.20;63.80
1570;DHT22;778;50.120;8.698;2022-08-19T14:11:58;29.20;68.80
1570;DHT22;778;50.120;8.698;2022-08-19T14:14:26;29.30;63.70
1570;DHT22;778;50.120;8.698;2022-08-19T14:16:55;29.30;62.90
1570;DHT22;778;50.120;8.698;2022-08-19T14:19:25;29.40;61.70
1570;DHT22;778;50.120;8.698;2022-08-19T14:21:56;29.30;66.00
1570;DHT22;778;50.120;8.698;2022-08-19T14:24:25;29.20;66.50
1570;DHT22;778;50.120;8.698;2022-08-19T14:26:54;29.30;65.70
1570;DHT22;778;50.120;8.698;2022-08-19T14:29:22;29.20;66.80
1570;DHT22;778;50.120;8.698;2022-08-19T14:31:51;29.10;64.40
1570;DHT22;778;50.120;8.698;2022-08-19T14:34:19;29.20;62.10
1570;DHT22;778;50.120;8.698;2022-08-19T14:36:50;29.20;62.00
1570;DHT22;778;50.120;8.698;2022-08-19T14:39:19;29.20;61.20
1570;DHT22;778;50.120;8.698;2022-08-19T14:41:48;29.20;63.40
1570;DHT22;778;50.120;8.698;2022-08-19T14:44:16;29.00;61.50
1570;DHT22;778;50.120;8.698;2022-08-19T14:46:45;28.80;66.20
1570;DHT22;778;50.120;8.698;2022-08-19T14:49:15;28.80;62.40
1570;DHT22;778;50.120;8.698;2022-08-19T14:51:45;28.90;61.40
1570;DHT22;778;50.120;8.698;2022-08-19T14:54:15;28.80;64.30
1570;DHT22;778;50.120;8.698;2022-08-19T14:56:44;28.80;61.90
1570;DHT22;778;50.120;8.698;2022-08-19T14:59:13;28.80;64.60
1570;DHT22;778;50.120;8.698;2022-08-19T15:01:41;28.90;60.50
1570;DHT22;778;50.120;8.698;2022-08-19T15:04:10;28.90;61.00
1570;DHT22;778;50.120;8.698;2022-08-19T15:06:39;28.90;63.40
1570;DHT22;778;50.120;8.698;2022-08-19T15:09:09;29.00;64.60
1570;DHT22;778;50.120;8.698;2022-08-19T15:11:39;29.00;64.00
1570;DHT22;778;50.120;8.698;2022-08-19T15:14:08;28.90;64.60
1570;DHT22;778;50.120;8.698;2022-08-19T15:16:36;28.90;60.30
1570;DHT22;778;50.120;8.698;2022-08-19T15:19:08;28.90;59.40
1570;DHT22;778;50.120;8.698;2022-08-19T15:21:38;28.90;59.50
1570;DHT22;778;50.120;8.698;2022-08-19T15:24:07;28.90;61.20
1570;DHT22;778;50.120;8.698;2022-08-19T15:26:36;28.80;61.20
1570;DHT22;778;50.120;8.698;2022-08-19T15:29:05;28.80;58.80
1570;DHT22;778;50.120;8.698;2022-08-19T15:31:35;28.80;60.70
1570;DHT22;778;50.120;8.698;2022-08-19T15:34:05;28.90;60.00
1570;DHT22;778;50.120;8.698;2022-08-19T15:36:34;28.80;59.40
1570;DHT22;778;50.120;8.698;2022-08-19T15:39:04;28.80;59.80
1570;DHT22;778;50.120;8.698;2022-08-19T15:41:33;28.90;58.80
1570;DHT22;778;50.120;8.698;2022-08-19T15:44:06;29.00;58.30
1570;DHT22;778;50.120;8.698;2022-08-19T15:46:39;29.00;58.30
1570;DHT22;778;50.120;8.698;2022-08-19T15:49:08;29.00;60.40
1570;DHT22;778;50.120;8.698;2022-08-19T15:51:39;29.10;58.70
1570;DHT22;778;50.120;8.698;2022-08-19T15:54:11;29.10;57.80
1570;DHT22;778;50.120;8.698;2022-08-19T15:56:41;29.00;57.60
1570;DHT22;778;50.120;8.698;2022-08-19T15:59:28;28.90;59.50
1570;DHT22;778;50.120;8.698;2022-08-19T16:02:17;29.00;62.40
1570;DHT22;778;50.120;8.698;2022-08-19T16:05:08;29.00;58.90
1570;DHT22;778;50.120;8.698;2022-08-19T16:07:55;29.10;58.40
1570;DHT22;778;50.120;8.698;2022-08-19T16:10:24;29.00;58.90
1570;DHT22;778;50.120;8.698;2022-08-19T16:12:55;29.00;58.30
1570;DHT22;778;50.120;8.698;2022-08-19T16:15:26;28.90;60.20
1570;DHT22;778;50.120;8.698;2022-08-19T16:17:56;29.00;58.20
1570;DHT22;778;50.120;8.698;2022-08-19T16:20:29;28.90;56.80
1570;DHT22;778;50.120;8.698;2022-08-19T16:23:02;28.90;56.30
1570;DHT22;778;50.120;8.698;2022-08-19T16:25:31;28.90;56.50
1570;DHT22;778;50.120;8.698;2022-08-19T16:27:59;28.90;55.80
1570;DHT22;778;50.120;8.698;2022-08-19T16:30:36;28.70;57.30
1570;DHT22;778;50.120;8.698;2022-08-19T16:33:06;28.80;56.30
1570;DHT22;778;50.120;8.698;2022-08-19T16:35:35;28.90;56.40
1570;DHT22;778;50.120;8.698;2022-08-19T16:38:03;28.80;58.50
1570;DHT22;778;50.120;8.698;2022-08-19T16:40:33;28.80;57.00
1570;DHT22;778;50.120;8.698;2022-08-19T16:43:02;28.60;58.90
1570;DHT22;778;50.120;8.698;2022-08-19T16:45:31;28.70;59.40
1570;DHT22;778;50.120;8.698;2022-08-19T16:48:01;28.70;57.20
1570;DHT22;778;50.120;8.698;2022-08-19T16:50:30;28.70;56.70